sensor_id;sensor_type;location;lat;lon;timestamp;P1;durP1;ratioP1;P2;durP2;ratioP2
20170;SDS011;10245;51.344;6.620;2023-02-10T00:01:37;64.55;;;37.20;;
20170;SDS011;10245;51.344;6.620;2023-02-10T00:04:02;62.17;;;35.17;;
20170;SDS011;10245;51.344;6.620;2023-02-10T00:06:26;70.22;;;36.38;;
20170;SDS011;10245;51.344;6.620;2023-02-10T00:08:50;65.10;;;36.90;;
20170;SDS011;10245;51.344;6.620;2023-02-10T00:11:17;65.15;;;35.80;;
20170;SDS011;10245;51.344;6.620;2023-02-10T00:13:41;61.42;;;34.95;;
20170;SDS011;10245;51.344;6.620;2023-02-10T00:16:05;63.33;;;36.63;;
20170;SDS011;10245;51.344;6.620;2023-02-10T00:18:32;66.93;;;36.53;;
20170;SDS011;10245;51.344;6.620;2023-02-10T00:21:04;63.08;;;36.58;;
20170;SDS011;10245;51.344;6.620;2023-02-10T00:23:28;60.58;;;36.00;;
20170;SDS011;10245;51.344;6.620;2023-02-10T00:25:51;60.78;;;36.67;;
20170;SDS011;10245;51.344;6.620;2023-02-10T00:28:15;65.97;;;36.65;;
20170;SDS011;10245;51.344;6.620;2023-02-10T00:30:39;65.90;;;36.60;;
20170;SDS011;10245;51.344;6.620;2023-02-10T00:33:02;64.38;;;37.38;;
20170;SDS011;10245;51.344;6.620;2023-02-10T00:35:25;67.00;;;36.30;;
20170;SDS011;10245;51.344;6.620;2023-02-10T00:37:50;66.05;;;36.83;;
20170;SDS011;10245;51.344;6.620;2023-02-10T00:40:14;70.75;;;37.63;;
20170;SDS011;10245;51.344;6.620;2023-02-10T00:42:38;66.15;;;37.17;;
20170;SDS011;10245;51.344;6.620;2023-02-10T00:45:02;73.05;;;39.25;;
20170;SDS011;10245;51.344;6.620;2023-02-10T00:47:25;63.33;;;37.20;;
20170;SDS011;10245;51.344;6.620;2023-02-10T00:49:49;73.72;;;37.08;;
20170;SDS011;10245;51.344;6.620;2023-02-10T00:52:15;63.75;;;37.95;;
20170;SDS011;10245;51.344;6.620;2023-02-10T00:54:39;65.50;;;40.10;;
20170;SDS011;10245;51.344;6.620;2023-02-10T00:57:04;65.38;;;37.65;;
20170;SDS011;10245;51.344;6.620;2023-02-10T00:59:27;64.53;;;38.20;;
20170;SDS011;10245;51.344;6.620;2023-02-10T01:01:50;58.92;;;35.03;;
20170;SDS011;10245;51.344;6.620;2023-02-10T01:04:13;64.65;;;37.55;;
20170;SDS011;10245;51.344;6.620;2023-02-10T01:06:37;62.97;;;37.45;;
20170;SDS011;10245;51.344;6.620;2023-02-10T01:09:00;64.80;;;36.78;;
20170;SDS011;10245;51.344;6.620;2023-02-10T01:11:25;60.22;;;36.85;;
20170;SDS011;10245;51.344;6.620;2023-02-10T01:13:49;65.75;;;37.65;;
20170;SDS011;10245;51.344;6.620;2023-02-10T01:16:14;65.45;;;36.10;;
20170;SDS011;10245;51.344;6.620;2023-02-10T01:18:39;63.63;;;36.25;;
20170;SDS011;10245;51.344;6.620;2023-02-10T01:21:05;67.25;;;37.85;;
20170;SDS011;10245;51.344;6.620;2023-02-10T01:23:30;66.47;;;38.60;;
20170;SDS011;10245;51.344;6.620;2023-02-10T01:25:53;64.22;;;37.88;;
20170;SDS011;10245;51.344;6.620;2023-02-10T01:28:18;63.22;;;37.22;;
20170;SDS011;10245;51.344;6.620;2023-02-10T01:30:41;69.30;;;37.70;;
20170;SDS011;10245;51.344;6.620;2023-02-10T01:33:04;69.35;;;39.08;;
20170;SDS011;10245;51.344;6.620;2023-02-10T01:35:28;69.55;;;38.92;;
20170;SDS011;10245;51.344;6.620;2023-02-10T01:37:51;64.57;;;37.50;;
20170;SDS011;10245;51.344;6.620;2023-02-10T01:40:15;67.43;;;38.50;;
20170;SDS011;10245;51.344;6.620;2023-02-10T01:42:39;64.88;;;37.30;;
20170;SDS011;10245;51.344;6.620;2023-02-10T01:45:16;65.85;;;36.88;;
20170;SDS011;10245;51.344;6.620;2023-02-10T01:47:42;64.70;;;37.58;;
20170;SDS011;10245;51.344;6.620;2023-02-10T01:50:07;67.45;;;37.70;;
20170;SDS011;10245;51.344;6.620;2023-02-10T01:52:32;68.37;;;39.47;;
20170;SDS011;10245;51.344;6.620;2023-02-10T01:54:57;62.53;;;37.17;;
20170;SDS011;10245;51.344;6.620;2023-02-10T01:57:25;66.80;;;38.00;;
20170;SDS011;10245;51.344;6.620;2023-02-10T01:59:49;65.47;;;38.17;;
20170;SDS011;10245;51.344;6.620;2023-02-10T02:02:14;65.07;;;38.33;;
20170;SDS011;10245;51.344;6.620;2023-02-10T02:04:40;61.28;;;35.50;;
20170;SDS011;10245;51.344;6.620;2023-02-10T02:07:09;69.00;;;37.63;;
20170;SDS011;10245;51.344;6.620;2023-02-10T02:09:32;66.32;;;37.08;;
20170;SDS011;10245;51.344;6.620;2023-02-10T02:11:57;67.68;;;38.67;;
20170;SDS011;10245;51.344;6.620;2023-02-10T02:14:29;65.85;;;36.85;;
20170;SDS011;10245;51.344;6.620;2023-02-10T02:17:02;68.13;;;38.53;;
20170;SDS011;10245;51.344;6.620;2023-02-10T02:19:40;67.65;;;37.85;;
20170;SDS011;10245;51.344;6.620;2023-02-10T02:22:54;60.33;;;35.50;;
20170;SDS011;10245;51.344;6.620;2023-02-10T02:25:35;61.65;;;35.33;;
20170;SDS011;10245;51.344;6.620;2023-02-10T02:28:24;55.42;;;33.63;;
20170;SDS011;10245;51.344;6.620;2023-02-10T02:31:06;69.70;;;37.90;;
20170;SDS011;10245;51.344;6.620;2023-02-10T02:34:00;62.13;;;35.85;;
20170;SDS011;10245;51.344;6.620;2023-02-10T02:36:29;65.57;;;35.95;;
20170;SDS011;10245;51.344;6.620;2023-02-10T02:38:58;66.10;;;37.75;;
20170;SDS011;10245;51.344;6.620;2023-02-10T02:41:24;64.93;;;36.55;;
20170;SDS011;10245;51.344;6.620;2023-02-10T02:43:47;65.57;;;38.17;;
20170;SDS011;10245;51.344;6.620;2023-02-10T02:46:12;61.92;;;38.10;;
20170;SDS011;10245;51.344;6.620;2023-02-10T02:49:06;60.20;;;36.05;;
20170;SDS011;10245;51.344;6.620;2023-02-10T02:51:38;62.60;;;37.50;;
20170;SDS011;10245;51.344;6.620;2023-02-10T02:54:13;60.17;;;36.42;;
20170;SDS011;10245;51.344;6.620;2023-02-10T02:56:45;70.70;;;38.80;;
20170;SDS011;10245;51.344;6.620;2023-02-10T02:59:14;62.22;;;34.75;;
20170;SDS011;10245;51.344;6.620;2023-02-10T03:01:43;61.47;;;35.38;;
20170;SDS011;10245;51.344;6.620;2023-02-10T03:04:12;57.53;;;33.85;;
20170;SDS011;10245;51.344;6.620;2023-02-10T03:06:38;58.05;;;33.47;;
20170;SDS011;10245;51.344;6.620;2023-02-10T03:09:01;57.85;;;32.88;;
20170;SDS011;10245;51.344;6.620;2023-02-10T03:11:25;54.00;;;32.00;;
20170;SDS011;10245;51.344;6.620;2023-02-10T03:13:48;51.35;;;30.83;;
20170;SDS011;10245;51.344;6.620;2023-02-10T03:16:12;51.70;;;32.17;;
20170;SDS011;10245;51.344;6.620;2023-02-10T03:18:35;57.03;;;33.33;;
20170;SDS011;10245;51.344;6.620;2023-02-10T03:21:00;55.78;;;32.38;;
20170;SDS011;10245;51.344;6.620;2023-02-10T03:23:23;51.05;;;32.03;;
20170;SDS011;10245;51.344;6.620;2023-02-10T03:25:47;56.20;;;34.83;;
20170;SDS011;10245;51.344;6.620;2023-02-10T03:28:11;62.78;;;36.33;;
20170;SDS011;10245;51.344;6.620;2023-02-10T03:30:34;57.15;;;34.85;;
20170;SDS011;10245;51.344;6.620;2023-02-10T03:32:59;56.80;;;34.22;;
20170;SDS011;10245;51.344;6.620;2023-02-10T03:35:22;58.93;;;34.30;;
20170;SDS011;10245;51.344;6.620;2023-02-10T03:37:47;60.15;;;36.47;;
20170;SDS011;10245;51.344;6.620;2023-02-10T03:40:10;61.67;;;36.38;;
20170;SDS011;10245;51.344;6.620;2023-02-10T03:42:34;61.55;;;36.47;;
20170;SDS011;10245;51.344;6.620;2023-02-10T03:44:57;63.10;;;37.67;;
20170;SDS011;10245;51.344;6.620;2023-02-10T03:47:21;62.53;;;36.45;;
20170;SDS011;10245;51.344;6.620;2023-02-10T03:49:44;58.47;;;33.95;;
20170;SDS011;10245;51.344;6.620;2023-02-10T03:52:07;60.78;;;34.78;;
20170;SDS011;10245;51.344;6.620;2023-02-10T03:54:32;58.40;;;35.75;;
20170;SDS011;10245;51.344;6.620;2023-02-10T03:56:56;58.55;;;34.47;;
20170;SDS011;10245;51.344;6.620;2023-02-10T03:59:19;65.80;;;37.90;;
20170;SDS011;10245;51.344;6.620;2023-02-10T04:01:42;62.58;;;36.25;;
20170;SDS011;10245;51.344;6.620;2023-02-10T04:04:06;60.13;;;33.58;;
20170;SDS011;10245;51.344;6.620;2023-02-10T04:06:29;61.80;;;34.58;;
20170;SDS011;10245;51.344;6.620;2023-02-10T04:08:52;56.28;;;32.97;;
20170;SDS011;10245;51.344;6.620;2023-02-10T04:11:17;56.17;;;32.85;;
20170;SDS011;10245;51.344;6.620;2023-02-10T04:13:41;62.30;;;35.73;;
20170;SDS011;10245;51.344;6.620;2023-02-10T04:16:05;57.38;;;33.47;;
20170;SDS011;10245;51.344;6.620;2023-02-10T04:18:31;63.33;;;36.17;;
20170;SDS011;10245;51.344;6.620;2023-02-10T04:20:56;58.20;;;35.05;;
20170;SDS011;10245;51.344;6.620;2023-02-10T04:23:20;63.47;;;36.05;;
20170;SDS011;10245;51.344;6.620;2023-02-10T04:25:43;70.28;;;37.95;;
20170;SDS011;10245;51.344;6.620;2023-02-10T04:28:09;68.10;;;37.40;;
20170;SDS011;10245;51.344;6.620;2023-02-10T04:30:32;65.57;;;36.80;;
20170;SDS011;10245;51.344;6.620;2023-02-10T04:32:55;75.45;;;40.25;;
20170;SDS011;10245;51.344;6.620;2023-02-10T04:35:19;72.20;;;39.50;;
20170;SDS011;10245;51.344;6.620;2023-02-10T04:37:42;71.68;;;39.78;;
20170;SDS011;10245;51.344;6.620;2023-02-10T04:40:05;75.53;;;39.88;;
20170;SDS011;10245;51.344;6.620;2023-02-10T04:42:30;62.13;;;34.47;;
20170;SDS011;10245;51.344;6.620;2023-02-10T04:44:54;62.85;;;35.47;;
20170;SDS011;10245;51.344;6.620;2023-02-10T04:47:18;59.93;;;35.13;;
20170;SDS011;10245;51.344;6.620;2023-02-10T04:49:41;70.77;;;39.37;;
20170;SDS011;10245;51.344;6.620;2023-02-10T04:52:05;63.73;;;35.83;;
20170;SDS011;10245;51.344;6.620;2023-02-10T04:54:28;65.40;;;35.78;;
20170;SDS011;10245;51.344;6.620;2023-02-10T04:56:51;61.50;;;34.88;;
20170;SDS011;10245;51.344;6.620;2023-02-10T04:59:15;64.28;;;37.13;;
20170;SDS011;10245;51.344;6.620;2023-02-10T05:01:39;64.72;;;38.17;;
20170;SDS011;10245;51.344;6.620;2023-02-10T05:04:03;73.38;;;37.72;;
20170;SDS011;10245;51.344;6.620;2023-02-10T05:06:26;64.95;;;37.33;;
20170;SDS011;10245;51.344;6.620;2023-02-10T05:08:49;64.80;;;36.42;;
20170;SDS011;10245;51.344;6.620;2023-02-10T05:11:13;66.50;;;36.47;;
20170;SDS011;10245;51.344;6.620;2023-02-10T05:13:38;65.97;;;35.83;;
20170;SDS011;10245;51.344;6.620;2023-02-10T05:16:02;67.20;;;36.08;;
20170;SDS011;10245;51.344;6.620;2023-02-10T05:18:29;60.03;;;34.38;;
20170;SDS011;10245;51.344;6.620;2023-02-10T05:20:52;72.75;;;39.20;;
20170;SDS011;10245;51.344;6.620;2023-02-10T05:23:15;64.83;;;36.13;;
20170;SDS011;10245;51.344;6.620;2023-02-10T05:25:39;68.40;;;37.78;;
20170;SDS011;10245;51.344;6.620;2023-02-10T05:28:02;62.73;;;34.90;;
20170;SDS011;10245;51.344;6.620;2023-02-10T05:30:25;59.85;;;33.20;;
20170;SDS011;10245;51.344;6.620;2023-02-10T05:32:48;61.53;;;34.58;;
20170;SDS011;10245;51.344;6.620;2023-02-10T05:35:13;62.77;;;35.33;;
20170;SDS011;10245;51.344;6.620;2023-02-10T05:37:37;62.00;;;34.63;;
20170;SDS011;10245;51.344;6.620;2023-02-10T05:40:00;57.42;;;34.00;;
20170;SDS011;10245;51.344;6.620;2023-02-10T05:42:24;55.53;;;34.53;;
20170;SDS011;10245;51.344;6.620;2023-02-10T05:44:47;67.47;;;35.97;;
20170;SDS011;10245;51.344;6.620;2023-02-10T05:47:11;63.57;;;33.83;;
20170;SDS011;10245;51.344;6.620;2023-02-10T05:49:34;60.00;;;35.60;;
20170;SDS011;10245;51.344;6.620;2023-02-10T05:51:59;61.28;;;34.53;;
20170;SDS011;10245;51.344;6.620;2023-02-10T05:54:23;65.40;;;35.43;;
20170;SDS011;10245;51.344;6.620;2023-02-10T05:56:46;58.27;;;33.70;;
20170;SDS011;10245;51.344;6.620;2023-02-10T05:59:11;61.43;;;33.63;;
20170;SDS011;10245;51.344;6.620;2023-02-10T06:01:36;63.27;;;34.10;;
20170;SDS011;10245;51.344;6.620;2023-02-10T06:03:59;53.43;;;31.50;;
20170;SDS011;10245;51.344;6.620;2023-02-10T06:06:22;65.40;;;34.83;;
20170;SDS011;10245;51.344;6.620;2023-02-10T06:08:47;62.80;;;35.10;;
20170;SDS011;10245;51.344;6.620;2023-02-10T06:11:10;60.07;;;35.13;;
20170;SDS011;10245;51.344;6.620;2023-02-10T06:13:34;59.23;;;35.73;;
20170;SDS011;10245;51.344;6.620;2023-02-10T06:15:58;65.57;;;35.53;;
20170;SDS011;10245;51.344;6.620;2023-02-10T06:18:22;64.83;;;35.40;;
20170;SDS011;10245;51.344;6.620;2023-02-10T06:20:46;67.53;;;36.93;;
20170;SDS011;10245;51.344;6.620;2023-02-10T06:23:09;63.73;;;35.43;;
20170;SDS011;10245;51.344;6.620;2023-02-10T06:25:34;63.67;;;34.83;;
20170;SDS011;10245;51.344;6.620;2023-02-10T06:27:58;63.30;;;33.83;;
20170;SDS011;10245;51.344;6.620;2023-02-10T06:30:21;60.17;;;34.08;;
20170;SDS011;10245;51.344;6.620;2023-02-10T06:32:46;60.40;;;34.20;;
20170;SDS011;10245;51.344;6.620;2023-02-10T06:35:09;60.07;;;34.43;;
20170;SDS011;10245;51.344;6.620;2023-02-10T06:37:33;65.37;;;35.00;;
20170;SDS011;10245;51.344;6.620;2023-02-10T06:39:56;65.23;;;34.73;;
20170;SDS011;10245;51.344;6.620;2023-02-10T06:42:21;56.70;;;34.00;;
20170;SDS011;10245;51.344;6.620;2023-02-10T06:44:44;65.50;;;35.70;;
20170;SDS011;10245;51.344;6.620;2023-02-10T06:47:08;59.73;;;33.97;;
20170;SDS011;10245;51.344;6.620;2023-02-10T06:49:31;56.57;;;32.17;;
20170;SDS011;10245;51.344;6.620;2023-02-10T06:51:54;63.80;;;36.03;;
20170;SDS011;10245;51.344;6.620;2023-02-10T06:54:18;62.47;;;35.43;;
20170;SDS011;10245;51.344;6.620;2023-02-10T06:56:41;58.80;;;33.60;;
20170;SDS011;10245;51.344;6.620;2023-02-10T06:59:08;61.40;;;34.03;;
20170;SDS011;10245;51.344;6.620;2023-02-10T07:01:31;63.63;;;34.80;;
20170;SDS011;10245;51.344;6.620;2023-02-10T07:03:55;62.20;;;33.03;;
20170;SDS011;10245;51.344;6.620;2023-02-10T07:06:18;60.93;;;35.23;;
20170;SDS011;10245;51.344;6.620;2023-02-10T07:08:42;62.47;;;33.03;;
20170;SDS011;10245;51.344;6.620;2023-02-10T07:11:05;64.07;;;35.27;;
20170;SDS011;10245;51.344;6.620;2023-02-10T07:13:28;62.87;;;33.47;;
20170;SDS011;10245;51.344;6.620;2023-02-10T07:15:53;59.93;;;33.77;;
20170;SDS011;10245;51.344;6.620;2023-02-10T07:18:16;60.10;;;33.97;;
20170;SDS011;10245;51.344;6.620;2023-02-10T07:20:40;70.53;;;37.60;;
20170;SDS011;10245;51.344;6.620;2023-02-10T07:23:03;66.40;;;37.73;;
20170;SDS011;10245;51.344;6.620;2023-02-10T07:25:26;67.73;;;35.87;;
20170;SDS011;10245;51.344;6.620;2023-02-10T07:27:50;76.93;;;37.77;;
20170;SDS011;10245;51.344;6.620;2023-02-10T07:30:13;68.50;;;37.40;;
20170;SDS011;10245;51.344;6.620;2023-02-10T07:32:38;72.00;;;39.00;;
20170;SDS011;10245;51.344;6.620;2023-02-10T07:35:05;74.73;;;40.00;;
20170;SDS011;10245;51.344;6.620;2023-02-10T07:37:29;65.97;;;37.10;;
20170;SDS011;10245;51.344;6.620;2023-02-10T07:39:53;77.70;;;41.03;;
20170;SDS011;10245;51.344;6.620;2023-02-10T07:42:17;76.80;;;42.07;;
20170;SDS011;10245;51.344;6.620;2023-02-10T07:44:57;75.03;;;41.40;;
20170;SDS011;10245;51.344;6.620;2023-02-10T07:47:22;82.00;;;42.47;;
20170;SDS011;10245;51.344;6.620;2023-02-10T07:49:47;69.47;;;38.70;;
20170;SDS011;10245;51.344;6.620;2023-02-10T07:52:12;85.57;;;43.83;;
20170;SDS011;10245;51.344;6.620;2023-02-10T07:54:35;76.60;;;41.47;;
20170;SDS011;10245;51.344;6.620;2023-02-10T07:56:59;80.47;;;42.00;;
20170;SDS011;10245;51.344;6.620;2023-02-10T07:59:22;75.20;;;41.87;;
20170;SDS011;10245;51.344;6.620;2023-02-10T08:01:45;86.37;;;44.40;;
20170;SDS011;10245;51.344;6.620;2023-02-10T08:04:09;80.57;;;42.13;;
20170;SDS011;10245;51.344;6.620;2023-02-10T08:06:34;83.97;;;44.60;;
20170;SDS011;10245;51.344;6.620;2023-02-10T08:08:57;86.30;;;45.57;;
20170;SDS011;10245;51.344;6.620;2023-02-10T08:11:20;89.13;;;46.37;;
20170;SDS011;10245;51.344;6.620;2023-02-10T08:13:44;85.80;;;45.70;;
20170;SDS011;10245;51.344;6.620;2023-02-10T08:16:08;89.57;;;46.37;;
20170;SDS011;10245;51.344;6.620;2023-02-10T08:18:32;89.27;;;48.20;;
20170;SDS011;10245;51.344;6.620;2023-02-10T08:20:58;89.73;;;46.50;;
20170;SDS011;10245;51.344;6.620;2023-02-10T08:23:22;81.33;;;43.40;;
20170;SDS011;10245;51.344;6.620;2023-02-10T08:25:46;82.73;;;45.40;;
20170;SDS011;10245;51.344;6.620;2023-02-10T08:28:11;88.13;;;44.53;;
20170;SDS011;10245;51.344;6.620;2023-02-10T08:30:34;93.73;;;46.57;;
20170;SDS011;10245;51.344;6.620;2023-02-10T08:32:58;88.10;;;44.80;;
20170;SDS011;10245;51.344;6.620;2023-02-10T08:35:22;79.33;;;42.97;;
20170;SDS011;10245;51.344;6.620;2023-02-10T08:37:46;83.67;;;45.13;;
20170;SDS011;10245;51.344;6.620;2023-02-10T08:40:11;83.47;;;45.63;;
20170;SDS011;10245;51.344;6.620;2023-02-10T08:42:34;85.97;;;45.07;;
20170;SDS011;10245;51.344;6.620;2023-02-10T08:44:58;87.27;;;47.03;;
20170;SDS011;10245;51.344;6.620;2023-02-10T08:47:21;84.53;;;43.47;;
20170;SDS011;10245;51.344;6.620;2023-02-10T08:49:45;84.07;;;44.83;;
20170;SDS011;10245;51.344;6.620;2023-02-10T08:52:08;83.83;;;44.03;;
20170;SDS011;10245;51.344;6.620;2023-02-10T08:54:32;84.97;;;45.87;;
20170;SDS011;10245;51.344;6.620;2023-02-10T08:56:56;79.27;;;43.10;;
20170;SDS011;10245;51.344;6.620;2023-02-10T08:59:20;87.40;;;45.30;;
20170;SDS011;10245;51.344;6.620;2023-02-10T09:01:44;82.70;;;43.77;;
20170;SDS011;10245;51.344;6.620;2023-02-10T09:04:07;83.93;;;43.53;;
20170;SDS011;10245;51.344;6.620;2023-02-10T09:06:32;91.63;;;48.28;;
20170;SDS011;10245;51.344;6.620;2023-02-10T09:09:00;87.80;;;46.03;;
20170;SDS011;10245;51.344;6.620;2023-02-10T09:11:23;88.17;;;45.47;;
20170;SDS011;10245;51.344;6.620;2023-02-10T09:13:49;88.53;;;44.83;;
20170;SDS011;10245;51.344;6.620;2023-02-10T09:16:13;85.80;;;45.97;;
20170;SDS011;10245;51.344;6.620;2023-02-10T09:18:36;84.23;;;45.67;;
20170;SDS011;10245;51.344;6.620;2023-02-10T09:21:00;83.73;;;43.97;;
20170;SDS011;10245;51.344;6.620;2023-02-10T09:23:24;91.93;;;47.47;;
20170;SDS011;10245;51.344;6.620;2023-02-10T09:25:51;83.57;;;45.07;;
20170;SDS011;10245;51.344;6.620;2023-02-10T09:28:15;82.97;;;44.03;;
20170;SDS011;10245;51.344;6.620;2023-02-10T09:30:41;84.73;;;44.77;;
20170;SDS011;10245;51.344;6.620;2023-02-10T09:33:05;80.10;;;42.03;;
20170;SDS011;10245;51.344;6.620;2023-02-10T09:35:29;84.78;;;43.97;;
20170;SDS011;10245;51.344;6.620;2023-02-10T09:37:52;80.10;;;42.58;;
20170;SDS011;10245;51.344;6.620;2023-02-10T09:40:16;85.70;;;43.70;;
20170;SDS011;10245;51.344;6.620;2023-02-10T09:42:49;79.57;;;42.42;;
20170;SDS011;10245;51.344;6.620;2023-02-10T09:45:29;77.85;;;40.78;;
20170;SDS011;10245;51.344;6.620;2023-02-10T09:48:02;80.97;;;42.97;;
20170;SDS011;10245;51.344;6.620;2023-02-10T09:50:43;83.63;;;45.37;;
20170;SDS011;10245;51.344;6.620;2023-02-10T09:53:16;83.00;;;43.67;;
20170;SDS011;10245;51.344;6.620;2023-02-10T09:55:43;80.10;;;43.63;;
20170;SDS011;10245;51.344;6.620;2023-02-10T09:58:12;79.63;;;41.15;;
20170;SDS011;10245;51.344;6.620;2023-02-10T10:00:43;76.63;;;43.83;;
20170;SDS011;10245;51.344;6.620;2023-02-10T10:03:12;76.88;;;39.35;;
20170;SDS011;10245;51.344;6.620;2023-02-10T10:05:40;75.57;;;39.17;;
20170;SDS011;10245;51.344;6.620;2023-02-10T10:08:16;82.70;;;40.10;;
20170;SDS011;10245;51.344;6.620;2023-02-10T10:10:46;78.75;;;40.40;;
20170;SDS011;10245;51.344;6.620;2023-02-10T10:13:12;79.15;;;42.42;;
20170;SDS011;10245;51.344;6.620;2023-02-10T10:15:38;78.40;;;39.13;;
20170;SDS011;10245;51.344;6.620;2023-02-10T10:18:13;82.40;;;44.17;;
20170;SDS011;10245;51.344;6.620;2023-02-10T10:20:48;77.43;;;43.55;;
20170;SDS011;10245;51.344;6.620;2023-02-10T10:23:21;78.28;;;42.30;;
20170;SDS011;10245;51.344;6.620;2023-02-10T10:25:58;82.82;;;42.15;;
20170;SDS011;10245;51.344;6.620;2023-02-10T10:28:35;77.88;;;39.10;;
20170;SDS011;10245;51.344;6.620;2023-02-10T10:31:13;79.60;;;41.53;;
20170;SDS011;10245;51.344;6.620;2023-02-10T10:33:42;74.18;;;41.15;;
20170;SDS011;10245;51.344;6.620;2023-02-10T10:36:13;77.40;;;41.20;;
20170;SDS011;10245;51.344;6.620;2023-02-10T10:38:40;70.25;;;39.28;;
20170;SDS011;10245;51.344;6.620;2023-02-10T10:41:10;67.75;;;37.55;;
20170;SDS011;10245;51.344;6.620;2023-02-10T10:43:37;78.75;;;41.58;;
20170;SDS011;10245;51.344;6.620;2023-02-10T10:46:10;74.55;;;37.78;;
20170;SDS011;10245;51.344;6.620;2023-02-10T10:48:37;72.75;;;39.97;;
20170;SDS011;10245;51.344;6.620;2023-02-10T10:51:05;76.50;;;38.97;;
20170;SDS011;10245;51.344;6.620;2023-02-10T10:53:32;67.18;;;37.17;;
20170;SDS011;10245;51.344;6.620;2023-02-10T10:56:01;69.32;;;39.00;;
20170;SDS011;10245;51.344;6.620;2023-02-10T10:58:29;71.43;;;39.22;;
20170;SDS011;10245;51.344;6.620;2023-02-10T11:00:58;64.80;;;36.38;;
20170;SDS011;10245;51.344;6.620;2023-02-10T11:03:25;67.68;;;36.00;;
20170;SDS011;10245;51.344;6.620;2023-02-10T11:06:00;67.93;;;36.17;;
20170;SDS011;10245;51.344;6.620;2023-02-10T11:08:28;62.22;;;34.17;;
20170;SDS011;10245;51.344;6.620;2023-02-10T11:10:55;65.13;;;34.22;;
20170;SDS011;10245;51.344;6.620;2023-02-10T11:13:22;68.70;;;36.50;;
20170;SDS011;10245;51.344;6.620;2023-02-10T11:15:49;66.03;;;34.38;;
20170;SDS011;10245;51.344;6.620;2023-02-10T11:18:22;60.15;;;34.75;;
20170;SDS011;10245;51.344;6.620;2023-02-10T11:20:53;54.55;;;31.10;;
20170;SDS011;10245;51.344;6.620;2023-02-10T11:23:20;57.92;;;31.90;;
20170;SDS011;10245;51.344;6.620;2023-02-10T11:25:46;61.95;;;33.00;;
20170;SDS011;10245;51.344;6.620;2023-02-10T11:28:19;60.53;;;32.67;;
20170;SDS011;10245;51.344;6.620;2023-02-10T11:30:47;62.05;;;32.40;;
20170;SDS011;10245;51.344;6.620;2023-02-10T11:33:19;56.22;;;32.60;;
20170;SDS011;10245;51.344;6.620;2023-02-10T11:35:46;58.13;;;29.85;;
20170;SDS011;10245;51.344;6.620;2023-02-10T11:38:15;53.78;;;30.73;;
20170;SDS011;10245;51.344;6.620;2023-02-10T11:40:48;57.33;;;31.52;;
20170;SDS011;10245;51.344;6.620;2023-02-10T11:43:14;52.40;;;30.20;;
20170;SDS011;10245;51.344;6.620;2023-02-10T11:45:39;55.22;;;28.55;;
20170;SDS011;10245;51.344;6.620;2023-02-10T11:48:19;51.78;;;28.00;;
20170;SDS011;10245;51.344;6.620;2023-02-10T11:50:44;50.38;;;26.40;;
20170;SDS011;10245;51.344;6.620;2023-02-10T11:53:10;44.10;;;25.33;;
20170;SDS011;10245;51.344;6.620;2023-02-10T11:55:46;47.85;;;25.25;;
20170;SDS011;10245;51.344;6.620;2023-02-10T11:58:35;45.35;;;24.15;;
20170;SDS011;10245;51.344;6.620;2023-02-10T12:01:28;49.60;;;24.00;;
20170;SDS011;10245;51.344;6.620;2023-02-10T12:04:08;44.67;;;23.45;;
20170;SDS011;10245;51.344;6.620;2023-02-10T12:06:45;44.30;;;24.75;;
20170;SDS011;10245;51.344;6.620;2023-02-10T12:09:20;50.00;;;26.45;;
20170;SDS011;10245;51.344;6.620;2023-02-10T12:11:51;46.08;;;25.63;;
20170;SDS011;10245;51.344;6.620;2023-02-10T12:14:26;45.22;;;25.50;;
20170;SDS011;10245;51.344;6.620;2023-02-10T12:17:05;50.45;;;26.42;;
20170;SDS011;10245;51.344;6.620;2023-02-10T12:19:47;41.72;;;24.23;;
20170;SDS011;10245;51.344;6.620;2023-02-10T12:22:46;44.15;;;22.92;;
20170;SDS011;10245;51.344;6.620;2023-02-10T12:25:32;47.13;;;24.20;;
20170;SDS011;10245;51.344;6.620;2023-02-10T12:28:06;43.05;;;23.52;;
20170;SDS011;10245;51.344;6.620;2023-02-10T12:30:38;44.35;;;24.20;;
20170;SDS011;10245;51.344;6.620;2023-02-10T12:33:18;44.47;;;23.65;;
20170;SDS011;10245;51.344;6.620;2023-02-10T12:35:55;35.63;;;20.15;;
20170;SDS011;10245;51.344;6.620;2023-02-10T12:38:30;40.45;;;20.38;;
20170;SDS011;10245;51.344;6.620;2023-02-10T12:41:17;31.92;;;17.35;;
20170;SDS011;10245;51.344;6.620;2023-02-10T12:43:54;35.65;;;16.98;;
20170;SDS011;10245;51.344;6.620;2023-02-10T12:46:30;35.70;;;16.88;;
20170;SDS011;10245;51.344;6.620;2023-02-10T12:49:15;42.83;;;19.67;;
20170;SDS011;10245;51.344;6.620;2023-02-10T12:51:57;38.38;;;20.35;;
20170;SDS011;10245;51.344;6.620;2023-02-10T12:54:29;36.83;;;20.52;;
20170;SDS011;10245;51.344;6.620;2023-02-10T12:57:06;45.28;;;23.13;;
20170;SDS011;10245;51.344;6.620;2023-02-10T12:59:34;41.17;;;22.55;;
20170;SDS011;10245;51.344;6.620;2023-02-10T13:02:10;46.13;;;24.20;;
20170;SDS011;10245;51.344;6.620;2023-02-10T13:04:37;43.53;;;23.38;;
20170;SDS011;10245;51.344;6.620;2023-02-10T13:07:20;48.05;;;25.55;;
20170;SDS011;10245;51.344;6.620;2023-02-10T13:09:53;41.40;;;25.42;;
20170;SDS011;10245;51.344;6.620;2023-02-10T13:12:23;43.35;;;26.35;;
20170;SDS011;10245;51.344;6.620;2023-02-10T13:14:51;47.03;;;26.15;;
20170;SDS011;10245;51.344;6.620;2023-02-10T13:17:23;46.95;;;25.55;;
20170;SDS011;10245;51.344;6.620;2023-02-10T13:19:49;45.05;;;25.60;;
20170;SDS011;10245;51.344;6.620;2023-02-10T13:22:22;40.00;;;23.30;;
20170;SDS011;10245;51.344;6.620;2023-02-10T13:25:07;47.15;;;24.42;;
20170;SDS011;10245;51.344;6.620;2023-02-10T13:27:40;41.05;;;23.50;;
20170;SDS011;10245;51.344;6.620;2023-02-10T13:30:20;42.42;;;23.83;;
20170;SDS011;10245;51.344;6.620;2023-02-10T13:33:13;41.83;;;23.17;;
20170;SDS011;10245;51.344;6.620;2023-02-10T13:35:43;41.80;;;24.08;;
20170;SDS011;10245;51.344;6.620;2023-02-10T13:38:08;43.65;;;23.77;;
20170;SDS011;10245;51.344;6.620;2023-02-10T13:40:44;41.10;;;25.08;;
20170;SDS011;10245;51.344;6.620;2023-02-10T13:43:20;41.47;;;23.13;;
20170;SDS011;10245;51.344;6.620;2023-02-10T13:45:49;40.13;;;22.83;;
20170;SDS011;10245;51.344;6.620;2023-02-10T13:48:18;40.40;;;22.92;;
20170;SDS011;10245;51.344;6.620;2023-02-10T13:50:49;36.92;;;22.15;;
20170;SDS011;10245;51.344;6.620;2023-02-10T13:53:29;39.08;;;23.25;;
20170;SDS011;10245;51.344;6.620;2023-02-10T13:56:04;33.03;;;22.17;;
20170;SDS011;10245;51.344;6.620;2023-02-10T13:58:46;40.65;;;22.67;;
20170;SDS011;10245;51.344;6.620;2023-02-10T14:03:54;38.10;;;23.25;;
20170;SDS011;10245;51.344;6.620;2023-02-10T14:06:19;39.03;;;22.40;;
20170;SDS011;10245;51.344;6.620;2023-02-10T14:09:01;43.60;;;22.63;;
20170;SDS011;10245;51.344;6.620;2023-02-10T14:11:29;36.63;;;22.40;;
20170;SDS011;10245;51.344;6.620;2023-02-10T14:14:14;36.42;;;22.88;;
20170;SDS011;10245;51.344;6.620;2023-02-10T14:16:42;36.22;;;22.52;;
20170;SDS011;10245;51.344;6.620;2023-02-10T14:19:19;31.60;;;20.15;;
20170;SDS011;10245;51.344;6.620;2023-02-10T14:21:46;36.25;;;22.52;;
20170;SDS011;10245;51.344;6.620;2023-02-10T14:24:12;33.35;;;19.83;;
20170;SDS011;10245;51.344;6.620;2023-02-10T14:26:47;31.70;;;19.58;;